sensor_id;sensor_type;location;lat;lon;timestamp;temperature;humidity
16388;DHT22;8303;53.446;9.988;2022-08-11T04:45:39;14.70;99.90
16388;DHT22;8303;53.446;9.988;2022-08-11T04:48:27;14.70;99.90
16388;DHT22;8303;53.446;9.988;2022-08-11T04:51:35;14.80;99.90
16388;DHT22;8303;53.446;9.988;2022-08-11T04:54:30;14.90;99.90
16388;DHT22;8303;53.446;9.988;2022-08-11T04:57:34;15.00;99.90
16388;DHT22;8303;53.446;9.988;2022-08-11T05:00:26;15.00;99.90
16388;DHT22;8303;53.446;9.988;2022-08-11T05:03:42;15.10;99.90
16388;DHT22;8303;53.446;9.988;2022-08-11T05:06:47;15.20;99.90
16388;DHT22;8303;53.446;9.988;2022-08-11T05:09:43;15.30;99.90
16388;DHT22;8303;53.446;9.988;2022-08-11T05:12:26;15.40;99.90
16388;DHT22;8303;53.446;9.988;2022-08-11T05:14:55;15.50;99.90
16388;DHT22;8303;53.446;9.988;2022-08-11T05:17:44;15.60;99.90
16388;DHT22;8303;53.446;9.988;2022-08-11T05:20:42;15.80;99.90
16388;DHT22;8303;53.446;9.988;2022-08-11T05:23:28;15.90;99.90
16388;DHT22;8303;53.446;9.988;2022-08-11T05:26:14;16.00;99.90
16388;DHT22;8303;53.446;9.988;2022-08-11T05:29:02;16.10;99.90
16388;DHT22;8303;53.446;9.988;2022-08-11T05:31:54;16.20;99.90
16388;DHT22;8303;53.446;9.988;2022-08-11T05:34:43;16.30;99.90
16388;DHT22;8303;53.446;9.988;2022-08-11T05:37:22;16.50;99.90
16388;DHT22;8303;53.446;9.988;2022-08-11T05:39:56;16.50;99.90
16388;DHT22;8303;53.446;9.988;2022-08-11T05:42:48;16.70;99.90
16388;DHT22;8303;53.446;9.988;2022-08-11T05:45:33;16.80;99.90
16388;DHT22;8303;53.446;9.988;2022-08-11T05:48:19;16.90;99.90
16388;DHT22;8303;53.446;9.988;2022-08-11T05:51:04;17.10;99.90
16388;DHT22;8303;53.446;9.988;2022-08-11T05:53:53;17.20;99.90
16388;DHT22;8303;53.446;9.988;2022-08-11T05:56:44;17.30;99.90
16388;DHT22;8303;53.446;9.988;2022-08-11T05:59:15;17.50;99.90
16388;DHT22;8303;53.446;9.988;2022-08-11T06:01:44;17.70;99.90
16388;DHT22;8303;53.446;9.988;2022-08-11T06:04:16;17.80;99.90
16388;DHT22;8303;53.446;9.988;2022-08-11T06:06:49;18.00;99.90
16388;DHT22;8303;53.446;9.988;2022-08-11T06:09:23;18.10;95.70
16388;DHT22;8303;53.446;9.988;2022-08-11T06:11:59;18.30;73.70
16388;DHT22;8303;53.446;9.988;2022-08-11T06:14:27;18.40;63.00
16388;DHT22;8303;53.446;9.988;2022-08-11T06:16:58;18.60;44.60
16388;DHT22;8303;53.446;9.988;2022-08-11T06:19:37;18.60;16.20
16388;DHT22;8303;53.446;9.988;2022-08-11T06:22:07;18.70;1.00
16388;DHT22;8303;53.446;9.988;2022-08-11T06:24:40;18.80;1.00
16388;DHT22;8303;53.446;9.988;2022-08-11T06:27:08;18.90;1.00
16388;DHT22;8303;53.446;9.988;2022-08-11T06:29:45;19.00;1.00
16388;DHT22;8303;53.446;9.988;2022-08-11T06:32:13;19.20;1.00
16388;DHT22;8303;53.446;9.988;2022-08-11T06:35:00;19.30;1.00
16388;DHT22;8303;53.446;9.988;2022-08-11T06:37:39;19.40;1.00
16388;DHT22;8303;53.446;9.988;2022-08-11T06:40:24;19.50;1.00
16388;DHT22;8303;53.446;9.988;2022-08-11T06:42:57;19.50;1.00
16388;DHT22;8303;53.446;9.988;2022-08-11T06:45:31;19.50;1.00
16388;DHT22;8303;53.446;9.988;2022-08-11T06:48:15;19.60;1.00
16388;DHT22;8303;53.446;9.988;2022-08-11T06:50:48;19.70;1.00
16388;DHT22;8303;53.446;9.988;2022-08-11T06:53:33;19.70;1.00
16388;DHT22;8303;53.446;9.988;2022-08-11T06:56:04;19.80;1.00
16388;DHT22;8303;53.446;9.988;2022-08-11T06:58:51;20.00;1.00
16388;DHT22;8303;53.446;9.988;2022-08-11T07:01:40;20.20;1.00
16388;DHT22;8303;53.446;9.988;2022-08-11T07:04:15;20.20;1.00
16388;DHT22;8303;53.446;9.988;2022-08-11T07:07:00;20.30;1.00
16388;DHT22;8303;53.446;9.988;2022-08-11T07:10:23;20.40;1.00
16388;DHT22;8303;53.446;9.988;2022-08-11T07:13:13;20.60;1.00
16388;DHT22;8303;53.446;9.988;2022-08-11T07:16:00;20.70;1.00
16388;DHT22;8303;53.446;9.988;2022-08-11T07:18:31;20.80;1.00
16388;DHT22;8303;53.446;9.988;2022-08-11T07:21:21;20.90;1.00
16388;DHT22;8303;53.446;9.988;2022-08-11T07:24:12;21.00;1.00
16388;DHT22;8303;53.446;9.988;2022-08-11T07:26:59;21.10;1.00
16388;DHT22;8303;53.446;9.988;2022-08-11T07:29:46;21.20;1.00
16388;DHT22;8303;53.446;9.988;2022-08-11T07:32:21;21.30;99.90
16388;DHT22;8303;53.446;9.988;2022-08-11T07:34:55;21.40;99.90
16388;DHT22;8303;53.446;9.988;2022-08-11T07:37:25;21.60;99.90
16388;DHT22;8303;53.446;9.988;2022-08-11T07:39:54;21.60;99.90
16388;DHT22;8303;53.446;9.988;2022-08-11T07:42:27;21.60;99.90
16388;DHT22;8303;53.446;9.988;2022-08-11T07:44:56;21.70;99.90
16388;DHT22;8303;53.446;9.988;2022-08-11T07:47:42;21.90;99.90
16388;DHT22;8303;53.446;9.988;2022-08-11T07:50:29;22.00;99.90
16388;DHT22;8303;53.446;9.988;2022-08-11T07:53:14;22.10;99.90
16388;DHT22;8303;53.446;9.988;2022-08-11T07:55:47;22.20;99.90
16388;DHT22;8303;53.446;9.988;2022-08-11T07:58:16;22.30;99.90
16388;DHT22;8303;53.446;9.988;2022-08-11T08:01:02;22.40;99.90
16388;DHT22;8303;53.446;9.988;2022-08-11T08:03:47;22.40;99.90
16388;DHT22;8303;53.446;9.988;2022-08-11T08:06:32;22.60;99.90
16388;DHT22;8303;53.446;9.988;2022-08-11T08:09:19;22.70;99.90
16388;DHT22;8303;53.446;9.988;2022-08-11T08:12:07;22.70;99.90
16388;DHT22;8303;53.446;9.988;2022-08-11T08:14:54;22.80;99.90
16388;DHT22;8303;53.446;9.988;2022-08-11T08:17:42;22.90;99.90
16388;DHT22;8303;53.446;9.988;2022-08-11T08:20:19;23.00;99.90
16388;DHT22;8303;53.446;9.988;2022-08-11T08:22:49;23.10;99.90
16388;DHT22;8303;53.446;9.988;2022-08-11T08:25:23;23.20;99.90
16388;DHT22;8303;53.446;9.988;2022-08-11T08:27:51;23.20;99.90
16388;DHT22;8303;53.446;9.988;2022-08-11T08:30:19;23.40;99.90
16388;DHT22;8303;53.446;9.988;2022-08-11T08:33:05;23.60;99.90
16388;DHT22;8303;53.446;9.988;2022-08-11T08:35:35;23.70;99.90
16388;DHT22;8303;53.446;9.988;2022-08-11T08:38:02;23.70;99.90
16388;DHT22;8303;53.446;9.988;2022-08-11T08:40:30;23.70;99.90
16388;DHT22;8303;53.446;9.988;2022-08-11T08:43:01;23.70;99.90
16388;DHT22;8303;53.446;9.988;2022-08-11T08:45:32;23.90;99.90
16388;DHT22;8303;53.446;9.988;2022-08-11T08:48:05;24.00;99.90
16388;DHT22;8303;53.446;9.988;2022-08-11T08:50:41;24.00;99.90
16388;DHT22;8303;53.446;9.988;2022-08-11T08:53:29;24.20;99.90
16388;DHT22;8303;53.446;9.988;2022-08-11T08:56:02;24.40;99.90
16388;DHT22;8303;53.446;9.988;2022-08-11T08:58:34;24.40;99.90
16388;DHT22;8303;53.446;9.988;2022-08-11T09:01:06;24.50;99.90
16388;DHT22;8303;53.446;9.988;2022-08-11T09:03:38;24.50;99.90
16388;DHT22;8303;53.446;9.988;2022-08-11T09:06:09;24.60;99.90
16388;DHT22;8303;53.446;9.988;2022-08-11T09:08:40;24.70;99.90
16388;DHT22;8303;53.446;9.988;2022-08-11T09:11:09;24.90;99.90
16388;DHT22;8303;53.446;9.988;2022-08-11T09:13:54;25.10;99.90
16388;DHT22;8303;53.446;9.988;2022-08-11T09:16:22;25.10;99.90
16388;DHT22;8303;53.446;9.988;2022-08-11T09:18:50;25.20;99.90
16388;DHT22;8303;53.446;9.988;2022-08-11T09:21:20;25.10;99.90
16388;DHT22;8303;53.446;9.988;2022-08-11T09:23:48;24.90;99.90
16388;DHT22;8303;53.446;9.988;2022-08-11T09:26:34;25.10;99.90
16388;DHT22;8303;53.446;9.988;2022-08-11T09:29:26;25.40;99.90
16388;DHT22;8303;53.446;9.988;2022-08-11T09:31:56;25.50;99.90
16388;DHT22;8303;53.446;9.988;2022-08-11T09:34:24;25.50;99.90
16388;DHT22;8303;53.446;9.988;2022-08-11T09:36:58;25.60;99.90
16388;DHT22;8303;53.446;9.988;2022-08-11T09:39:43;25.60;99.90
16388;DHT22;8303;53.446;9.988;2022-08-11T09:42:28;25.60;99.90
16388;DHT22;8303;53.446;9.988;2022-08-11T09:45:10;25.60;99.90
16388;DHT22;8303;53.446;9.988;2022-08-11T09:47:44;25.80;99.90
16388;DHT22;8303;53.446;9.988;2022-08-11T09:50:15;26.00;99.90
16388;DHT22;8303;53.446;9.988;2022-08-11T09:52:44;26.20;99.90
16388;DHT22;8303;53.446;9.988;2022-08-11T09:55:14;26.30;99.90
16388;DHT22;8303;53.446;9.988;2022-08-11T09:57:44;26.30;99.90
16388;DHT22;8303;53.446;9.988;2022-08-11T10:00:31;26.30;99.90
16388;DHT22;8303;53.446;9.988;2022-08-11T10:03:02;26.30;99.90
16388;DHT22;8303;53.446;9.988;2022-08-11T10:05:32;26.30;99.90
16388;DHT22;8303;53.446;9.988;2022-08-11T10:08:27;26.20;99.90
16388;DHT22;8303;53.446;9.988;2022-08-11T10:10:55;26.30;99.90
16388;DHT22;8303;53.446;9.988;2022-08-11T10:13:29;26.60;99.90
16388;DHT22;8303;53.446;9.988;2022-08-11T10:16:02;26.80;99.90
16388;DHT22;8303;53.446;9.988;2022-08-11T10:18:33;26.90;99.90
16388;DHT22;8303;53.446;9.988;2022-08-11T10:21:10;26.90;99.90
16388;DHT22;8303;53.446;9.988;2022-08-11T10:23:41;26.80;99.90
16388;DHT22;8303;53.446;9.988;2022-08-11T10:26:28;27.00;99.90
16388;DHT22;8303;53.446;9.988;2022-08-11T10:29:13;27.20;99.90
16388;DHT22;8303;53.446;9.988;2022-08-11T10:31:59;27.10;99.90
16388;DHT22;8303;53.446;9.988;2022-08-11T10:34:45;27.00;99.90
16388;DHT22;8303;53.446;9.988;2022-08-11T10:37:13;27.30;99.90
16388;DHT22;8303;53.446;9.988;2022-08-11T10:39:42;27.30;99.90
16388;DHT22;8303;53.446;9.988;2022-08-11T10:42:11;27.50;99.90
16388;DHT22;8303;53.446;9.988;2022-08-11T10:44:57;27.50;99.90
16388;DHT22;8303;53.446;9.988;2022-08-11T10:47:26;27.60;99.90
16388;DHT22;8303;53.446;9.988;2022-08-11T10:50:02;27.70;99.90
16388;DHT22;8303;53.446;9.988;2022-08-11T10:52:48;27.80;99.90
16388;DHT22;8303;53.446;9.988;2022-08-11T10:55:37;27.90;99.90
16388;DHT22;8303;53.446;9.988;2022-08-11T10:58:21;28.20;99.90
16388;DHT22;8303;53.446;9.988;2022-08-11T11:01:07;28.10;99.90
16388;DHT22;8303;53.446;9.988;2022-08-11T11:03:35;28.20;99.90
16388;DHT22;8303;53.446;9.988;2022-08-11T11:06:07;28.30;99.90
16388;DHT22;8303;53.446;9.988;2022-08-11T11:08:39;28.50;99.90
16388;DHT22;8303;53.446;9.988;2022-08-11T11:11:23;28.50;99.90
16388;DHT22;8303;53.446;9.988;2022-08-11T11:14:16;28.50;99.90
16388;DHT22;8303;53.446;9.988;2022-08-11T11:17:02;28.50;99.90
16388;DHT22;8303;53.446;9.988;2022-08-11T11:19:53;28.60;99.90
16388;DHT22;8303;53.446;9.988;2022-08-11T11:22:24;28.70;99.90
16388;DHT22;8303;53.446;9.988;2022-08-11T11:25:20;28.60;99.90
16388;DHT22;8303;53.446;9.988;2022-08-11T11:28:09;28.70;99.90
16388;DHT22;8303;53.446;9.988;2022-08-11T11:30:47;28.50;99.90
16388;DHT22;8303;53.446;9.988;2022-08-11T11:33:26;28.70;99.90
16388;DHT22;8303;53.446;9.988;2022-08-11T11:36:08;29.10;99.90
16388;DHT22;8303;53.446;9.988;2022-08-11T11:38:37;29.10;99.90
16388;DHT22;8303;53.446;9.988;2022-08-11T11:41:06;29.40;99.90
16388;DHT22;8303;53.446;9.988;2022-08-11T11:43:55;29.30;99.90
16388;DHT22;8303;53.446;9.988;2022-08-11T11:46:26;29.40;99.90
16388;DHT22;8303;53.446;9.988;2022-08-11T11:48:53;29.40;99.90
16388;DHT22;8303;53.446;9.988;2022-08-11T11:51:21;29.50;99.90
16388;DHT22;8303;53.446;9.988;2022-08-11T11:53:50;29.50;99.90
16388;DHT22;8303;53.446;9.988;2022-08-11T11:56:18;29.60;99.90
16388;DHT22;8303;53.446;9.988;2022-08-11T11:58:47;29.60;99.90
16388;DHT22;8303;53.446;9.988;2022-08-11T12:01:33;29.70;99.90
16388;DHT22;8303;53.446;9.988;2022-08-11T12:04:02;29.30;99.90
16388;DHT22;8303;53.446;9.988;2022-08-11T12:06:31;29.50;99.90
16388;DHT22;8303;53.446;9.988;2022-08-11T12:08:58;29.40;99.90
16388;DHT22;8303;53.446;9.988;2022-08-11T12:11:27;29.70;99.90
16388;DHT22;8303;53.446;9.988;2022-08-11T12:14:15;29.90;99.90
16388;DHT22;8303;53.446;9.988;2022-08-11T12:16:46;29.80;99.90
16388;DHT22;8303;53.446;9.988;2022-08-11T12:19:15;30.10;99.90
16388;DHT22;8303;53.446;9.988;2022-08-11T12:21:43;30.00;99.90
16388;DHT22;8303;53.446;9.988;2022-08-11T12:24:24;30.10;99.90
16388;DHT22;8303;53.446;9.988;2022-08-11T12:27:09;29.70;99.90
16388;DHT22;8303;53.446;9.988;2022-08-11T12:29:50;29.30;99.90
16388;DHT22;8303;53.446;9.988;2022-08-11T12:32:19;29.60;99.90
16388;DHT22;8303;53.446;9.988;2022-08-11T12:34:47;29.80;99.90
16388;DHT22;8303;53.446;9.988;2022-08-11T12:37:16;29.80;99.90
16388;DHT22;8303;53.446;9.988;2022-08-11T12:39:50;30.00;99.90
16388;DHT22;8303;53.446;9.988;2022-08-11T12:42:36;30.40;99.90
16388;DHT22;8303;53.446;9.988;2022-08-11T12:45:25;30.60;99.90
16388;DHT22;8303;53.446;9.988;2022-08-11T12:48:08;30.30;99.90
16388;DHT22;8303;53.446;9.988;2022-08-11T12:50:56;30.20;99.90
16388;DHT22;8303;53.446;9.988;2022-08-11T12:53:52;30.50;99.90
16388;DHT22;8303;53.446;9.988;2022-08-11T12:56:20;30.50;99.90
16388;DHT22;8303;53.446;9.988;2022-08-11T12:59:07;30.40;99.90
16388;DHT22;8303;53.446;9.988;2022-08-11T13:01:52;30.40;99.90
16388;DHT22;8303;53.446;9.988;2022-08-11T13:04:39;30.30;99.90
16388;DHT22;8303;53.446;9.988;2022-08-11T13:07:25;30.70;99.90
16388;DHT22;8303;53.446;9.988;2022-08-11T13:09:53;30.80;99.90
16388;DHT22;8303;53.446;9.988;2022-08-11T13:12:22;31.00;99.90
16388;DHT22;8303;53.446;9.988;2022-08-11T13:15:09;31.10;99.90
16388;DHT22;8303;53.446;9.988;2022-08-11T13:17:36;30.50;99.90
16388;DHT22;8303;53.446;9.988;2022-08-11T13:20:09;30.40;99.90
16388;DHT22;8303;53.446;9.988;2022-08-11T13:22:41;30.70;99.90
16388;DHT22;8303;53.446;9.988;2022-08-11T13:25:11;31.00;99.90
16388;DHT22;8303;53.446;9.988;2022-08-11T13:27:38;31.30;99.90
16388;DHT22;8303;53.446;9.988;2022-08-11T13:30:07;31.30;99.90
16388;DHT22;8303;53.446;9.988;2022-08-11T13:32:52;31.10;99.90
16388;DHT22;8303;53.446;9.988;2022-08-11T13:35:21;30.80;99.90
16388;DHT22;8303;53.446;9.988;2022-08-11T13:37:50;31.20;99.90
16388;DHT22;8303;53.446;9.988;2022-08-11T13:40:19;31.40;99.90
16388;DHT22;8303;53.446;9.988;2022-08-11T13:42:47;31.80;99.90
16388;DHT22;8303;53.446;9.988;2022-08-11T13:45:15;31.90;99.90
16388;DHT22;8303;53.446;9.988;2022-08-11T13:47:42;31.70;99.90
16388;DHT22;8303;53.446;9.988;2022-08-11T13:50:10;31.70;99.90
16388;DHT22;8303;53.446;9.988;2022-08-11T13:52:40;31.90;99.90
16388;DHT22;8303;53.446;9.988;2022-08-11T13:55:10;32.20;99.90
16388;DHT22;8303;53.446;9.988;2022-08-11T13:57:47;32.30;99.90
16388;DHT22;8303;53.446;9.988;2022-08-11T14:00:15;32.20;99.90
16388;DHT22;8303;53.446;9.988;2022-08-11T14:02:43;32.30;99.90
16388;DHT22;8303;53.446;9.988;2022-08-11T14:05:13;32.30;99.90
16388;DHT22;8303;53.446;9.988;2022-08-11T14:07:49;32.40;99.90
16388;DHT22;8303;53.446;9.988;2022-08-11T14:10:19;31.40;99.90
16388;DHT22;8303;53.446;9.988;2022-08-11T14:12:52;31.60;99.90
16388;DHT22;8303;53.446;9.988;2022-08-11T14:15:41;31.90;99.90
16388;DHT22;8303;53.446;9.988;2022-08-11T14:18:15;32.90;99.90
16388;DHT22;8303;53.446;9.988;2022-08-11T14:20:43;33.80;99.90
16388;DHT22;8303;53.446;9.988;2022-08-11T14:23:36;34.00;99.90
16388;DHT22;8303;53.446;9.988;2022-08-11T14:26:04;33.80;99.90
16388;DHT22;8303;53.446;9.988;2022-08-11T14:28:53;34.20;99.90
16388;DHT22;8303;53.446;9.988;2022-08-11T14:31:22;34.60;99.90
16388;DHT22;8303;53.446;9.988;2022-08-11T14:33:52;34.50;99.90
16388;DHT22;8303;53.446;9.988;2022-08-11T14:36:20;34.20;99.90
16388;DHT22;8303;53.446;9.988;2022-08-11T14:38:49;34.20;99.90
16388;DHT22;8303;53.446;9.988;2022-08-11T14:41:18;34.80;99.90
16388;DHT22;8303;53.446;9.988;2022-08-11T14:44:04;35.10;99.90
16388;DHT22;8303;53.446;9.988;2022-08-11T14:46:48;35.80;99.90
16388;DHT22;8303;53.446;9.988;2022-08-11T14:49:32;35.90;99.90
16388;DHT22;8303;53.446;9.988;2022-08-11T14:52:02;36.50;99.90
16388;DHT22;8303;53.446;9.988;2022-08-11T14:54:31;35.80;99.90
16388;DHT22;8303;53.446;9.988;2022-08-11T14:57:16;35.00;99.90
16388;DHT22;8303;53.446;9.988;2022-08-11T14:59:46;35.40;99.90
16388;DHT22;8303;53.446;9.988;2022-08-11T15:02:14;35.30;99.90
16388;DHT22;8303;53.446;9.988;2022-08-11T15:05:00;35.70;99.90
16388;DHT22;8303;53.446;9.988;2022-08-11T15:07:28;35.90;99.90
16388;DHT22;8303;53.446;9.988;2022-08-11T15:10:00;36.50;99.90
16388;DHT22;8303;53.446;9.988;2022-08-11T15:12:28;36.80;99.90
16388;DHT22;8303;53.446;9.988;2022-08-11T15:14:56;36.90;99.90
16388;DHT22;8303;53.446;9.988;2022-08-11T15:17:41;37.70;99.90
16388;DHT22;8303;53.446;9.988;2022-08-11T15:20:13;37.50;99.90
16388;DHT22;8303;53.446;9.988;2022-08-11T15:22:58;37.10;99.90
16388;DHT22;8303;53.446;9.988;2022-08-11T15:25:50;38.00;99.90
16388;DHT22;8303;53.446;9.988;2022-08-11T15:28:19;37.90;99.90
16388;DHT22;8303;53.446;9.988;2022-08-11T15:31:04;38.00;99.90
16388;DHT22;8303;53.446;9.988;2022-08-11T15:33:52;39.60;99.90
16388;DHT22;8303;53.446;9.988;2022-08-11T15:36:37;40.00;99.90
16388;DHT22;8303;53.446;9.988;2022-08-11T15:39:26;39.70;99.90
16388;DHT22;8303;53.446;9.988;2022-08-11T15:41:58;40.80;99.90
16388;DHT22;8303;53.446;9.988;2022-08-11T15:44:52;40.70;99.90
16388;DHT22;8303;53.446;9.988;2022-08-11T15:47:41;42.10;99.90
16388;DHT22;8303;53.446;9.988;2022-08-11T15:50:14;42.10;99.90
16388;DHT22;8303;53.446;9.988;2022-08-11T15:52:46;42.10;99.90
16388;DHT22;8303;53.446;9.988;2022-08-11T15:55:15;42.80;99.90
16388;DHT22;8303;53.446;9.988;2022-08-11T15:57:48;43.20;99.90
16388;DHT22;8303;53.446;9.988;2022-08-11T16:00:36;44.60;99.90
16388;DHT22;8303;53.446;9.988;2022-08-11T16:03:23;44.00;99.90
16388;DHT22;8303;53.446;9.988;2022-08-11T16:06:09;41.90;99.90
16388;DHT22;8303;53.446;9.988;2022-08-11T16:08:38;42.50;99.90
16388;DHT22;8303;53.446;9.988;2022-08-11T16:11:07;42.20;99.90
16388;DHT22;8303;53.446;9.988;2022-08-11T16:13:36;41.40;99.90
16388;DHT22;8303;53.446;9.988;2022-08-11T16:16:22;40.40;99.90
16388;DHT22;8303;53.446;9.988;2022-08-11T16:18:51;41.10;99.90
16388;DHT22;8303;53.446;9.988;2022-08-11T16:21:23;39.70;99.90
16388;DHT22;8303;53.446;9.988;2022-08-11T16:23:53;40.00;99.90
16388;DHT22;8303;53.446;9.988;2022-08-11T16:26:22;40.50;99.90
16388;DHT22;8303;53.446;9.988;2022-08-11T16:28:52;41.00;99.90
16388;DHT22;8303;53.446;9.988;2022-08-11T16:31:21;40.60;99.90
16388;DHT22;8303;53.446;9.988;2022-08-11T16:33:51;39.80;99.90
16388;DHT22;8303;53.446;9.988;2022-08-11T16:36:19;38.80;99.90
16388;DHT22;8303;53.446;9.988;2022-08-11T16:39:06;37.60;99.90
16388;DHT22;8303;53.446;9.988;2022-08-11T16:41:35;37.80;99.90
16388;DHT22;8303;53.446;9.988;2022-08-11T16:44:21;37.70;99.90
16388;DHT22;8303;53.446;9.988;2022-08-11T16:47:09;38.90;99.90
16388;DHT22;8303;53.446;9.988;2022-08-11T16:49:38;38.20;99.90
16388;DHT22;8303;53.446;9.988;2022-08-11T16:52:07;37.70;99.90
16388;DHT22;8303;53.446;9.988;2022-08-11T16:54:38;37.10;99.90
16388;DHT22;8303;53.446;9.988;2022-08-11T16:57:09;36.60;99.90
16388;DHT22;8303;53.446;9.988;2022-08-11T16:59:59;37.40;99.90
16388;DHT22;8303;53.446;9.988;2022-08-11T17:02:31;37.10;99.90
16388;DHT22;8303;53.446;9.988;2022-08-11T17:05:18;36.80;99.90
16388;DHT22;8303;53.446;9.988;2022-08-11T17:08:06;36.60;99.90
16388;DHT22;8303;53.446;9.988;2022-08-11T17:10:55;36.30;99.90
16388;DHT22;8303;53.446;9.988;2022-08-11T17:13:43;36.60;99.90
16388;DHT22;8303;53.446;9.988;2022-08-11T17:16:17;36.00;99.90
16388;DHT22;8303;53.446;9.988;2022-08-11T17:18:50;35.70;99.90
16388;DHT22;8303;53.446;9.988;2022-08-11T17:21:23;35.80;99.90
16388;DHT22;8303;53.446;9.988;2022-08-11T17:23:53;36.00;99.90
16388;DHT22;8303;53.446;9.988;2022-08-11T17:26:24;36.30;99.90
16388;DHT22;8303;53.446;9.988;2022-08-11T17:28:56;36.10;99.90
16388;DHT22;8303;53.446;9.988;2022-08-11T17:31:28;36.00;99.90
16388;DHT22;8303;53.446;9.988;2022-08-11T17:34:13;35.70;99.90
16388;DHT22;8303;53.446;9.988;2022-08-11T17:36:58;35.20;99.90
16388;DHT22;8303;53.446;9.988;2022-08-11T17:39:28;35.00;99.90
16388;DHT22;8303;53.446;9.988;2022-08-11T17:41:56;34.50;99.90
16388;DHT22;8303;53.446;9.988;2022-08-11T17:44:42;34.20;99.90
16388;DHT22;8303;53.446;9.988;2022-08-11T17:47:29;33.10;99.90
16388;DHT22;8303;53.446;9.988;2022-08-11T17:50:14;30.60;99.90
16388;DHT22;8303;53.446;9.988;2022-08-11T17:52:42;29.30;99.90
16388;DHT22;8303;53.446;9.988;2022-08-11T17:55:29;28.60;99.90
16388;DHT22;8303;53.446;9.988;2022-08-11T17:58:15;27.90;99.90
16388;DHT22;8303;53.446;9.988;2022-08-11T18:01:01;27.50;99.90
16388;DHT22;8303;53.446;9.988;2022-08-11T18:03:31;27.10;99.90
16388;DHT22;8303;53.446;9.988;2022-08-11T18:05:59;26.90;99.90
16388;DHT22;8303;53.446;9.988;2022-08-11T18:08:28;26.80;99.90
16388;DHT22;8303;53.446;9.988;2022-08-11T18:11:15;26.60;99.90
16388;DHT22;8303;53.446;9.988;2022-08-11T18:14:02;26.50;99.90
16388;DHT22;8303;53.446;9.988;2022-08-11T18:16:47;26.40;99.90
16388;DHT22;8303;53.446;9.988;2022-08-11T18:19:33;26.20;99.90
16388;DHT22;8303;53.446;9.988;2022-08-11T18:22:20;26.10;99.90
16388;DHT22;8303;53.446;9.988;2022-08-11T18:25:08;26.00;99.90
16388;DHT22;8303;53.446;9.988;2022-08-11T18:27:54;25.90;99.90
16388;DHT22;8303;53.446;9.988;2022-08-11T18:30:42;25.70;99.90
16388;DHT22;8303;53.446;9.988;2022-08-11T18:33:32;25.60;99.90
16388;DHT22;8303;53.446;9.988;2022-08-11T18:36:25;25.50;99.90
16388;DHT22;8303;53.446;9.988;2022-08-11T18:39:12;25.40;99.90
16388;DHT22;8303;53.446;9.988;2022-08-11T18:42:00;25.20;99.90
16388;DHT22;8303;53.446;9.988;2022-08-11T18:44:48;25.10;99.90
16388;DHT22;8303;53.446;9.988;2022-08-11T18:47:35;25.10;99.90
16388;DHT22;8303;53.446;9.988;2022-08-11T18:50:20;24.90;99.90
16388;DHT22;8303;53.446;9.988;2022-08-11T18:53:06;24.80;99.90
16388;DHT22;8303;53.446;9.988;2022-08-11T18:55:52;24.70;99.90
16388;DHT22;8303;53.446;9.988;2022-08-11T18:58:40;24.60;99.90
16388;DHT22;8303;53.446;9.988;2022-08-11T19:01:27;24.40;99.90
16388;DHT22;8303;53.446;9.988;2022-08-11T19:04:12;24.30;99.90
16388;DHT22;8303;53.446;9.988;2022-08-11T19:06:57;24.20;99.90
16388;DHT22;8303;53.446;9.988;2022-08-11T19:09:45;24.00;99.90
16388;DHT22;8303;53.446;9.988;2022-08-11T19:12:32;23.90;99.90
16388;DHT22;8303;53.446;9.988;2022-08-11T19:15:19;23.90;99.90
16388;DHT22;8303;53.446;9.988;2022-08-11T19:18:04;23.80;99.90
16388;DHT22;8303;53.446;9.988;2022-08-11T19:20:51;23.70;99.90
16388;DHT22;8303;53.446;9.988;2022-08-11T19:23:42;23.70;99.90
16388;DHT22;8303;53.446;9.988;2022-08-11T19:26:31;23.50;99.90
16388;DHT22;8303;53.446;9.988;2022-08-11T19:29:18;23.40;99.90
16388;DHT22;8303;53.446;9.988;2022-08-11T19:32:03;23.30;99.90
16388;DHT22;8303;53.446;9.988;2022-08-11T19:34:49;23.20;99.90
16388;DHT22;8303;53.446;9.988;2022-08-11T19:37:35;23.10;99.90
16388;DHT22;8303;53.446;9.988;2022-08-11T19:40:20;23.00;99.90
16388;DHT22;8303;53.446;9.988;2022-08-11T19:43:07;23.00;99.90
16388;DHT22;8303;53.446;9.988;2022-08-11T19:45:54;22.90;99.90
16388;DHT22;8303;53.446;9.988;2022-08-11T19:48:39;22.80;99.90
16388;DHT22;8303;53.446;9.988;2022-08-11T19:51:25;22.70;99.90
16388;DHT22;8303;53.446;9.988;2022-08-11T19:54:10;22.70;99.90
16388;DHT22;8303;53.446;9.988;2022-08-11T19:56:56;22.60;99.90
16388;DHT22;8303;53.446;9.988;2022-08-11T19:59:42;22.60;99.90
16388;DHT22;8303;53.446;9.988;2022-08-11T20:02:28;22.50;99.90
16388;DHT22;8303;53.446;9.988;2022-08-11T20:05:12;22.40;99.90
16388;DHT22;8303;53.446;9.988;2022-08-11T20:07:57;22.40;99.90
16388;DHT22;8303;53.446;9.988;2022-08-11T20:10:44;22.30;99.90
16388;DHT22;8303;53.446;9.988;2022-08-11T20:13:30;22.30;99.90
16388;DHT22;8303;53.446;9.988;2022-08-11T20:16:19;22.10;99.90
16388;DHT22;8303;53.446;9.988;2022-08-11T20:19:04;22.10;99.90
16388;DHT22;8303;53.446;9.988;2022-08-11T20:21:50;21.90;99.90
16388;DHT22;8303;53.446;9.988;2022-08-11T20:24:35;21.80;99.90
16388;DHT22;8303;53.446;9.988;2022-08-11T20:27:20;21.80;99.90
16388;DHT22;8303;53.446;9.988;2022-08-11T20:30:06;21.80;99.90
